createdAt,value
2023-04-07T00:00:28.548Z,76461.88
2023-04-07T00:02:01.384Z,76465.84
2023-04-07T00:03:34.437Z,76463.88
2023-04-07T00:05:07.537Z,76469.78
2023-04-07T00:06:40.913Z,76471.78
2023-04-07T00:08:13.521Z,76481.66
2023-04-07T00:09:46.323Z,76489.56
2023-04-07T00:11:18.968Z,76485.63
2023-04-07T00:12:51.720Z,76499.47
2023-04-07T00:14:24.322Z,76497.47
2023-04-07T00:15:57.089Z,76499.47
2023-04-07T00:17:29.893Z,76503.41
2023-04-07T00:19:02.556Z,76499.47
2023-04-07T00:20:35.044Z,76501.44
2023-04-07T00:22:07.893Z,76501.44
2023-04-07T00:23:40.710Z,76515.28
2023-04-07T00:25:13.282Z,76517.25
2023-04-07T00:26:46.024Z,76511.31
2023-04-07T00:28:18.865Z,76505.38
2023-04-07T00:29:51.711Z,76493.53
2023-04-07T00:31:24.459Z,76495.50
2023-04-07T00:32:57.483Z,76493.53
2023-04-07T00:34:30.762Z,76491.53
2023-04-07T00:36:03.685Z,76489.56
2023-04-07T00:37:36.664Z,76477.72
2023-04-07T00:39:09.403Z,76473.75
2023-04-07T00:40:42.190Z,76465.84
2023-04-07T00:42:14.912Z,76457.94
2023-04-07T00:43:47.680Z,76452.00
2023-04-07T00:45:21.092Z,76448.03
2023-04-07T00:46:54.092Z,76450.03
2023-04-07T00:48:27.106Z,76438.16
2023-04-07T00:49:59.920Z,76434.19
2023-04-07T00:51:32.799Z,76438.16
2023-04-07T00:53:06.156Z,76438.16
2023-04-07T00:54:39.790Z,76450.03
2023-04-07T00:56:13.614Z,76453.97
2023-04-07T00:57:47.028Z,76457.94
2023-04-07T00:59:21.181Z,76459.91
2023-04-07T01:01:13.860Z,76463.88
2023-04-07T01:02:58.140Z,76455.97
2023-04-07T01:04:31.248Z,76457.94
2023-04-07T01:06:07.064Z,76455.97
2023-04-07T01:07:44.584Z,76455.97
2023-04-07T01:09:23.514Z,76450.03
2023-04-07T01:10:59.534Z,76453.97
2023-04-07T01:12:36.732Z,76442.13
2023-04-07T01:14:11.550Z,76426.28
2023-04-07T01:15:53.103Z,76414.44
2023-04-07T01:17:28.993Z,76408.50
2023-04-07T01:19:32.606Z,76398.63
2023-04-07T01:21:15.034Z,76398.63
2023-04-07T01:22:52.091Z,76388.72
2023-04-07T01:24:30.341Z,76382.78
2023-04-07T01:26:03.015Z,76366.97
2023-04-07T01:27:43.225Z,76365.00
2023-04-07T01:29:34.341Z,76361.03
2023-04-07T01:31:08.011Z,76355.13
2023-04-07T01:32:42.041Z,76355.13
2023-04-07T01:34:15.802Z,76359.06
2023-04-07T01:35:50.460Z,76357.09
2023-04-07T01:37:23.520Z,76363.03
2023-04-07T01:38:57.023Z,76363.03
2023-04-07T01:40:30.802Z,76366.97
2023-04-07T01:42:05.807Z,76370.94
2023-04-07T01:43:40.992Z,76368.94
2023-04-07T01:45:16.600Z,76372.91
2023-04-07T01:46:51.434Z,76386.75
2023-04-07T01:48:24.508Z,76394.66
2023-04-07T01:50:02.086Z,76376.88
2023-04-07T01:51:36.197Z,76398.63
2023-04-07T01:53:08.936Z,76396.63
2023-04-07T01:54:42.196Z,76412.44
2023-04-07T01:56:15.756Z,76406.53
2023-04-07T01:57:53.603Z,76408.50
2023-04-07T01:59:26.407Z,76404.53
2023-04-07T02:01:00.472Z,76414.44
2023-04-07T02:02:37.026Z,76414.44
2023-04-07T02:04:17.227Z,76434.19
2023-04-07T02:05:52.721Z,76438.16
2023-04-07T02:07:32.926Z,76430.25
2023-04-07T02:09:08.236Z,76438.16
2023-04-07T02:10:42.261Z,76450.03
2023-04-07T02:12:16.318Z,76446.06
2023-04-07T02:14:02.180Z,76450.03
2023-04-07T02:15:58.504Z,76457.94
2023-04-07T02:17:35.145Z,76450.03
2023-04-07T02:19:08.500Z,76461.88
2023-04-07T02:20:42.905Z,76463.88
2023-04-07T02:22:17.721Z,76469.78
2023-04-07T02:23:50.959Z,76465.84
2023-04-07T02:25:24.014Z,76477.72
2023-04-07T02:26:57.661Z,76481.66
2023-04-07T02:28:30.952Z,76479.69
2023-04-07T02:30:03.745Z,76481.66
2023-04-07T02:31:36.668Z,76483.63
2023-04-07T02:33:09.432Z,76487.59
2023-04-07T02:34:42.438Z,76491.53
2023-04-07T02:36:14.988Z,76495.50
2023-04-07T02:37:48.167Z,76505.38
2023-04-07T02:39:20.937Z,76491.53
2023-04-07T02:40:53.966Z,76485.63
2023-04-07T02:42:27.274Z,76485.63
2023-04-07T02:44:01.349Z,76493.53
2023-04-07T02:45:33.975Z,76507.38
2023-04-07T02:47:06.875Z,76505.38
2023-04-07T02:48:39.478Z,76507.38
2023-04-07T02:50:12.273Z,76505.38
2023-04-07T02:51:47.203Z,76507.38
2023-04-07T02:53:23.380Z,76497.47
2023-04-07T02:54:56.405Z,76507.38
2023-04-07T02:56:33.118Z,76519.22
2023-04-07T02:58:05.840Z,76537.03
2023-04-07T02:59:50.304Z,76529.13
2023-04-07T03:01:23.024Z,76552.84
2023-04-07T03:02:56.203Z,76564.72
2023-04-07T03:04:29.146Z,76566.69
2023-04-07T03:06:04.421Z,76572.63
2023-04-07T03:07:37.925Z,76580.53
2023-04-07T03:09:11.479Z,76592.41
2023-04-07T03:10:45.174Z,76596.34
2023-04-07T03:12:18.420Z,76598.31
2023-04-07T03:13:51.727Z,76604.25
2023-04-07T03:15:24.829Z,76622.06
2023-04-07T03:16:57.944Z,76620.06
2023-04-07T03:18:31.285Z,76624.03
2023-04-07T03:20:07.183Z,76635.91
2023-04-07T03:21:42.842Z,76633.91
2023-04-07T03:23:15.770Z,76643.81
2023-04-07T03:24:48.751Z,76651.72
2023-04-07T03:26:22.149Z,76661.59
2023-04-07T03:27:56.411Z,76681.38
2023-04-07T03:29:30.960Z,76693.25
2023-04-07T03:31:04.080Z,76703.13
2023-04-07T03:32:37.026Z,76718.94
2023-04-07T03:34:09.733Z,76713.03
2023-04-07T03:35:43.041Z,76742.69
2023-04-07T03:37:17.366Z,76756.53
2023-04-07T03:38:51.650Z,76766.41
2023-04-07T03:40:24.828Z,76784.22
2023-04-07T03:41:58.317Z,76813.88
2023-04-07T03:43:33.772Z,76796.06
2023-04-07T03:45:07.724Z,76811.88
2023-04-07T03:46:43.105Z,76835.63
2023-04-07T03:48:16.004Z,76845.50
2023-04-07T03:50:00.183Z,76847.50
2023-04-07T03:51:34.439Z,76853.41
2023-04-07T03:53:10.040Z,76851.44
2023-04-07T03:54:42.784Z,76867.25
2023-04-07T03:56:15.477Z,76877.16
2023-04-07T03:57:51.081Z,76883.09
2023-04-07T03:59:24.361Z,76900.88
2023-04-07T04:01:03.498Z,76902.84
2023-04-07T04:02:36.995Z,76920.66
2023-04-07T04:04:10.154Z,76892.97
2023-04-07T04:05:43.255Z,76885.06
2023-04-07T04:07:21.520Z,76906.81
2023-04-07T04:08:56.871Z,76900.88
2023-04-07T04:10:31.382Z,76908.78
2023-04-07T04:12:04.516Z,76916.69
2023-04-07T04:13:38.781Z,76922.63
2023-04-07T04:15:12.483Z,76934.50
2023-04-07T04:16:45.802Z,76940.44
2023-04-07T04:18:32.773Z,76914.72
2023-04-07T04:20:05.802Z,76934.50
2023-04-07T04:21:47.367Z,76936.47
2023-04-07T04:23:21.568Z,76954.28
2023-04-07T04:24:57.938Z,76970.09
2023-04-07T04:26:32.968Z,76972.06
2023-04-07T04:28:12.478Z,76968.13
2023-04-07T04:29:47.237Z,76976.03
2023-04-07T04:31:22.250Z,76983.94
2023-04-07T04:32:55.942Z,76972.06
2023-04-07T04:34:37.610Z,76976.03
2023-04-07T04:36:10.188Z,76995.81
2023-04-07T04:37:42.961Z,76991.84
2023-04-07T04:39:17.259Z,76976.03
2023-04-07T04:40:51.185Z,76983.94
2023-04-07T04:42:28.636Z,76981.97
2023-04-07T04:44:02.915Z,77015.56
2023-04-07T04:45:37.092Z,76972.06
2023-04-07T04:47:10.977Z,76966.13
2023-04-07T04:48:45.950Z,76952.28
2023-04-07T04:50:19.239Z,76976.03
2023-04-07T04:51:52.800Z,76968.13
2023-04-07T04:53:25.847Z,76997.78
2023-04-07T04:55:03.095Z,76999.75
2023-04-07T04:56:36.136Z,76997.78
2023-04-07T04:58:09.508Z,76993.81
2023-04-07T04:59:51.836Z,76987.88
2023-04-07T05:01:24.800Z,77013.59
2023-04-07T05:03:04.160Z,77003.72
2023-04-07T05:04:41.550Z,77023.50
2023-04-07T05:06:24.983Z,77019.53
2023-04-07T05:08:00.180Z,77007.66
2023-04-07T05:09:38.868Z,77007.66
2023-04-07T05:11:12.255Z,77003.72
2023-04-07T05:12:45.794Z,77019.53
2023-04-07T05:14:18.470Z,77011.63
2023-04-07T05:15:58.233Z,77017.56
2023-04-07T05:17:31.267Z,77005.69
2023-04-07T05:19:06.629Z,77009.66
2023-04-07T05:20:39.600Z,76987.88
2023-04-07T05:22:14.022Z,77007.66
2023-04-07T05:23:51.494Z,77001.72
2023-04-07T05:25:27.231Z,76991.84
2023-04-07T05:27:04.064Z,76976.03
2023-04-07T05:28:37.623Z,76966.13
2023-04-07T05:30:16.004Z,76972.06
2023-04-07T05:31:48.829Z,76966.13
2023-04-07T05:33:23.360Z,76993.81
2023-04-07T05:34:58.911Z,76985.91
2023-04-07T05:36:36.327Z,76972.06
2023-04-07T05:38:09.066Z,76968.13
2023-04-07T05:41:17.478Z,76956.25
2023-04-07T05:42:50.060Z,76960.22
2023-04-07T05:44:22.822Z,76968.13
2023-04-07T05:45:55.521Z,76950.31
2023-04-07T05:47:29.278Z,76972.06
2023-04-07T05:49:13.289Z,76938.44
2023-04-07T05:50:56.310Z,76940.44
2023-04-07T05:52:29.013Z,76968.13
2023-04-07T05:54:11.799Z,76954.28
2023-04-07T05:55:44.670Z,76968.13
2023-04-07T05:57:40.767Z,76995.81
2023-04-07T05:59:13.645Z,76997.78
2023-04-07T06:00:46.424Z,76976.03
2023-04-07T06:02:22.898Z,76991.84
2023-04-07T06:03:57.465Z,76985.91
2023-04-07T06:05:32.070Z,77003.72
2023-04-07T06:07:04.794Z,76987.88
2023-04-07T06:08:37.497Z,76983.94
2023-04-07T06:10:10.389Z,76964.16
2023-04-07T06:11:43.349Z,76985.91
2023-04-07T06:13:16.128Z,76983.94
2023-04-07T06:14:53.313Z,77001.72
2023-04-07T06:16:27.992Z,77011.63
2023-04-07T06:18:00.917Z,77019.53
2023-04-07T06:19:33.509Z,76995.81
2023-04-07T06:21:06.649Z,76995.81
2023-04-07T06:22:39.472Z,76983.94
2023-04-07T06:24:13.641Z,76985.91
2023-04-07T06:25:46.372Z,76983.94
2023-04-07T06:27:19.345Z,76979.97
2023-04-07T06:28:53.962Z,76972.06
2023-04-07T06:30:26.803Z,76979.97
2023-04-07T06:31:59.664Z,76962.19
2023-04-07T06:33:32.484Z,76966.13
2023-04-07T06:35:05.563Z,76944.38
2023-04-07T06:36:38.604Z,76946.38
2023-04-07T06:38:12.606Z,76934.50
2023-04-07T06:39:45.771Z,76964.16
2023-04-07T06:41:18.330Z,76964.16
2023-04-07T06:42:51.985Z,76962.19
2023-04-07T06:44:33.443Z,76942.41
2023-04-07T06:46:06.531Z,76924.59
2023-04-07T06:47:39.299Z,76940.44
2023-04-07T06:49:12.450Z,76928.56
2023-04-07T06:50:49.733Z,76944.38
2023-04-07T06:52:22.578Z,76950.31
2023-04-07T06:53:55.665Z,76944.38
2023-04-07T06:55:28.483Z,76964.16
2023-04-07T06:57:01.818Z,76968.13
2023-04-07T06:58:34.669Z,76989.88
2023-04-07T07:00:08.269Z,77007.66
2023-04-07T07:01:41.125Z,77011.63
2023-04-07T07:03:13.980Z,77011.63
2023-04-07T07:04:49.059Z,77015.56
2023-04-07T07:06:21.942Z,77013.59
2023-04-07T07:07:54.741Z,76999.75
2023-04-07T07:09:27.895Z,76972.06
2023-04-07T07:11:00.960Z,76964.16
2023-04-07T07:12:33.762Z,76972.06
2023-04-07T07:14:06.589Z,76970.09
2023-04-07T07:15:39.222Z,76981.97
2023-04-07T07:17:11.806Z,76991.84
2023-04-07T07:18:44.696Z,76983.94
2023-04-07T07:20:17.496Z,76987.88
2023-04-07T07:21:50.349Z,76956.25
2023-04-07T07:23:23.001Z,76944.38
2023-04-07T07:24:55.867Z,76944.38
2023-04-07T07:26:28.800Z,76940.44
2023-04-07T07:28:01.710Z,76960.22
2023-04-07T07:29:34.449Z,76989.88
2023-04-07T07:31:13.481Z,76960.22
2023-04-07T07:32:46.296Z,76928.56
2023-04-07T07:34:18.882Z,76910.75
2023-04-07T07:35:52.192Z,76900.88
2023-04-07T07:37:24.961Z,76924.59
2023-04-07T07:38:57.671Z,76944.38
2023-04-07T07:40:30.716Z,76952.28
2023-04-07T07:42:03.391Z,76950.31
2023-04-07T07:43:37.360Z,76974.06
2023-04-07T07:45:10.818Z,76972.06
2023-04-07T07:46:43.442Z,76964.16
2023-04-07T07:48:16.111Z,76948.34
2023-04-07T07:49:48.878Z,76993.81
2023-04-07T07:51:22.028Z,77023.50
2023-04-07T07:52:54.605Z,76995.81
2023-04-07T07:54:27.379Z,76995.81
2023-04-07T07:56:00.400Z,76991.84
2023-04-07T07:57:33.170Z,76976.03
2023-04-07T07:59:08.644Z,76964.16
2023-04-07T08:00:41.656Z,76958.22
2023-04-07T08:02:14.487Z,76946.38
2023-04-07T08:03:48.215Z,76916.69
2023-04-07T08:05:21.230Z,76914.72
2023-04-07T08:06:53.929Z,76928.56
2023-04-07T08:08:26.602Z,76948.34
2023-04-07T08:09:59.348Z,76968.13
2023-04-07T08:11:31.955Z,76896.94
2023-04-07T08:13:05.525Z,76889.00
2023-04-07T08:14:38.458Z,76892.97
2023-04-07T08:16:11.741Z,76885.06
2023-04-07T08:17:44.583Z,76865.28
2023-04-07T08:19:17.333Z,76851.44
2023-04-07T08:20:50.196Z,76857.38
2023-04-07T08:22:23.279Z,76849.47
2023-04-07T08:23:56.629Z,76847.50
2023-04-07T08:25:30.072Z,76853.41
2023-04-07T08:27:02.973Z,76849.47
2023-04-07T08:28:35.837Z,76837.59
2023-04-07T08:30:08.764Z,76823.75
2023-04-07T08:31:41.764Z,76845.50
2023-04-07T08:33:14.623Z,76857.38
2023-04-07T08:34:47.443Z,76910.75
2023-04-07T08:36:23.286Z,76916.69
2023-04-07T08:37:56.042Z,76889.00
2023-04-07T08:39:29.194Z,76869.25
2023-04-07T08:41:06.135Z,76940.44
2023-04-07T08:42:41.482Z,76891.00
2023-04-07T08:44:15.588Z,76892.97
2023-04-07T08:45:48.928Z,76845.50
2023-04-07T08:47:23.234Z,76815.84
2023-04-07T08:48:57.137Z,76778.28
2023-04-07T08:50:29.789Z,76766.41
2023-04-07T08:52:09.114Z,76857.38
2023-04-07T08:53:46.295Z,76802.00
2023-04-07T08:55:19.625Z,76786.19
2023-04-07T08:56:53.135Z,76718.94
2023-04-07T08:58:26.672Z,76758.50
2023-04-07T09:00:08.849Z,76774.31
2023-04-07T09:01:42.149Z,76802.00
2023-04-07T09:03:16.771Z,76758.50
2023-04-07T09:04:49.559Z,76762.44
2023-04-07T09:06:22.214Z,76766.41
2023-04-07T09:07:54.984Z,76750.59
2023-04-07T09:09:27.871Z,76724.88
2023-04-07T09:11:00.784Z,76716.97
2023-04-07T09:12:34.272Z,76740.69
2023-04-07T09:14:07.994Z,76762.44
2023-04-07T09:15:41.857Z,76715.00
2023-04-07T09:17:14.756Z,76687.31
2023-04-07T09:18:47.813Z,76685.34
2023-04-07T09:20:20.654Z,76681.38
2023-04-07T09:21:53.795Z,76726.84
2023-04-07T09:23:30.873Z,76691.25
2023-04-07T09:25:17.458Z,76677.41
2023-04-07T09:26:50.297Z,76716.97
2023-04-07T09:28:23.301Z,76722.91
2023-04-07T09:30:11.812Z,76715.00
2023-04-07T09:31:44.712Z,76691.25
2023-04-07T09:33:27.151Z,76718.94
2023-04-07T09:35:00.654Z,76685.34
2023-04-07T09:36:41.655Z,76677.41
2023-04-07T09:38:14.613Z,76718.94
2023-04-07T09:39:51.054Z,76734.78
2023-04-07T09:41:24.123Z,76707.09
2023-04-07T09:42:58.749Z,76687.31
2023-04-07T09:44:39.960Z,76734.78
2023-04-07T09:46:13.389Z,76744.66
2023-04-07T09:47:46.673Z,76693.25
2023-04-07T09:49:20.685Z,76709.06
2023-04-07T09:51:05.302Z,76746.63
2023-04-07T09:52:54.694Z,76738.72
2023-04-07T09:54:33.840Z,76730.81
2023-04-07T09:56:06.632Z,76711.03
2023-04-07T09:57:39.752Z,76683.34
2023-04-07T09:59:12.757Z,76695.22
2023-04-07T10:00:46.043Z,76750.59
2023-04-07T10:02:19.313Z,76762.44
2023-04-07T10:03:53.202Z,76744.66
2023-04-07T10:05:26.017Z,76703.13
2023-04-07T10:07:00.335Z,76718.94
2023-04-07T10:08:37.808Z,76734.78
2023-04-07T10:10:11.089Z,76736.75
2023-04-07T10:11:44.029Z,76790.13
2023-04-07T10:13:16.930Z,76845.50
2023-04-07T10:14:50.776Z,76892.97
2023-04-07T10:16:23.844Z,76839.56
2023-04-07T10:17:57.340Z,76807.94
2023-04-07T10:19:34.135Z,76766.41
2023-04-07T10:21:08.488Z,76758.50
2023-04-07T10:22:42.908Z,76754.53
2023-04-07T10:24:25.629Z,76772.34
2023-04-07T10:25:59.836Z,76774.31
2023-04-07T10:27:50.767Z,76788.16
2023-04-07T10:29:24.424Z,76800.03
2023-04-07T10:30:57.447Z,76766.41
2023-04-07T10:32:30.479Z,76762.44
2023-04-07T10:34:04.201Z,76786.19
2023-04-07T10:35:57.472Z,76786.19
2023-04-07T10:37:33.756Z,76726.84
2023-04-07T10:39:09.814Z,76748.59
2023-04-07T10:40:43.416Z,76756.53
2023-04-07T10:42:34.618Z,76687.31
2023-04-07T10:44:08.422Z,76643.81
2023-04-07T10:45:50.601Z,76711.03
2023-04-07T10:47:23.476Z,76716.97
2023-04-07T10:49:26.285Z,76711.03
2023-04-07T10:51:05.356Z,76697.19
2023-04-07T10:52:39.014Z,76726.84
2023-04-07T10:54:22.592Z,76742.69
2023-04-07T10:55:56.985Z,76764.44
2023-04-07T10:57:30.477Z,76772.34
2023-04-07T10:59:15.707Z,76768.38
2023-04-07T11:01:00.830Z,76738.72
2023-04-07T11:02:34.204Z,76738.72
2023-04-07T11:04:09.113Z,76756.53
2023-04-07T11:05:42.610Z,76750.59
2023-04-07T11:07:16.638Z,76782.22
2023-04-07T11:08:50.987Z,76807.94
2023-04-07T11:10:23.783Z,76805.97
2023-04-07T11:11:56.828Z,76802.00
2023-04-07T11:13:29.577Z,76831.66
2023-04-07T11:15:17.027Z,76845.50
2023-04-07T11:16:50.064Z,76851.44
2023-04-07T11:18:23.997Z,76857.38
2023-04-07T11:19:57.856Z,76837.59
2023-04-07T11:21:30.970Z,76867.25
2023-04-07T11:23:03.874Z,76877.16
2023-04-07T11:24:39.519Z,76900.88
2023-04-07T11:26:14.086Z,76900.88
2023-04-07T11:27:48.096Z,76857.38
2023-04-07T11:29:28.011Z,76875.16
2023-04-07T11:31:00.843Z,76908.78
2023-04-07T11:32:33.697Z,76928.56
2023-04-07T11:34:06.515Z,76932.53
2023-04-07T11:35:39.355Z,76912.75
2023-04-07T11:37:29.160Z,76968.13
2023-04-07T11:39:05.454Z,76976.03
2023-04-07T11:41:35.972Z,76944.38
2023-04-07T11:43:28.057Z,76956.25
2023-04-07T11:45:01.249Z,76989.88
2023-04-07T11:46:35.688Z,76964.16
2023-04-07T11:48:27.642Z,76942.41
2023-04-07T11:50:00.293Z,76892.97
2023-04-07T11:51:33.306Z,76877.16
2023-04-07T11:53:06.232Z,76851.44
2023-04-07T11:54:42.975Z,76841.56
2023-04-07T11:56:19.608Z,76811.88
2023-04-07T11:57:52.629Z,76849.47
2023-04-07T11:59:26.006Z,76841.56
2023-04-07T12:01:07.313Z,76849.47
2023-04-07T12:02:40.613Z,76871.22
2023-04-07T12:04:15.414Z,76849.47
2023-04-07T12:05:48.269Z,76833.66
2023-04-07T12:07:21.416Z,76845.50
2023-04-07T12:08:54.309Z,76839.56
2023-04-07T12:10:27.182Z,76841.56
2023-04-07T12:11:59.952Z,76849.47
2023-04-07T12:13:33.080Z,76837.59
2023-04-07T12:15:06.377Z,76845.50
2023-04-07T12:16:39.580Z,76845.50
2023-04-07T12:18:15.871Z,76887.03
2023-04-07T12:19:48.820Z,76892.97
2023-04-07T12:21:21.621Z,76885.06
2023-04-07T12:22:54.390Z,76885.06
2023-04-07T12:24:27.607Z,76906.81
2023-04-07T12:26:01.693Z,76885.06
2023-04-07T12:27:42.861Z,76849.47
2023-04-07T12:29:20.575Z,76829.69
2023-04-07T12:30:53.413Z,76867.25
2023-04-07T12:32:26.905Z,76910.75
2023-04-07T12:33:59.704Z,76885.06
2023-04-07T12:35:32.680Z,76879.13
2023-04-07T12:37:05.252Z,76908.78
2023-04-07T12:38:38.162Z,76889.00
2023-04-07T12:40:11.628Z,76869.25
2023-04-07T12:41:49.439Z,76881.09
2023-04-07T12:43:22.036Z,76904.84
2023-04-07T12:44:54.855Z,76924.59
2023-04-07T12:46:27.771Z,76928.56
2023-04-07T12:48:00.858Z,76944.38
2023-04-07T12:49:33.703Z,76960.22
2023-04-07T12:51:06.867Z,76938.44
2023-04-07T12:52:39.441Z,76946.38
2023-04-07T12:54:11.995Z,76942.41
2023-04-07T12:55:44.583Z,76972.06
2023-04-07T12:57:17.455Z,76968.13
2023-04-07T12:58:50.099Z,76966.13
2023-04-07T13:00:22.875Z,76956.25
2023-04-07T13:01:55.696Z,76936.47
2023-04-07T13:03:29.363Z,76920.66
2023-04-07T13:05:02.279Z,76966.13
2023-04-07T13:06:35.782Z,76979.97
2023-04-07T13:08:08.439Z,76976.03
2023-04-07T13:09:44.339Z,76995.81
2023-04-07T13:11:16.970Z,76987.88
2023-04-07T13:12:49.613Z,77017.56
2023-04-07T13:14:22.308Z,77031.41
2023-04-07T13:15:57.479Z,77041.28
2023-04-07T13:17:30.597Z,77035.34
2023-04-07T13:19:04.373Z,77047.22
2023-04-07T13:20:38.109Z,77051.19
2023-04-07T13:22:11.049Z,77061.06
2023-04-07T13:23:53.431Z,77047.22
2023-04-07T13:25:26.207Z,77039.31
2023-04-07T13:26:59.822Z,77055.13
2023-04-07T13:28:32.700Z,77041.28
2023-04-07T13:30:05.465Z,77051.19
2023-04-07T13:31:38.058Z,77057.09
2023-04-07T13:33:10.703Z,77065.03
2023-04-07T13:34:44.379Z,77078.88
2023-04-07T13:36:17.067Z,77068.97
2023-04-07T13:37:49.804Z,77080.84
2023-04-07T13:39:22.373Z,77102.59
2023-04-07T13:40:55.340Z,77092.72
2023-04-07T13:42:28.124Z,77108.53
2023-04-07T13:44:01.592Z,77122.38
2023-04-07T13:45:34.219Z,77134.25
2023-04-07T13:47:07.887Z,77150.06
2023-04-07T13:48:40.667Z,77144.13
2023-04-07T13:50:13.409Z,77146.09
2023-04-07T13:51:46.062Z,77132.25
2023-04-07T13:53:19.381Z,77138.19
2023-04-07T13:54:52.074Z,77146.09
2023-04-07T13:56:24.939Z,77163.91
2023-04-07T13:57:57.475Z,77175.78
2023-04-07T13:59:30.452Z,77167.84
2023-04-07T14:01:05.922Z,77177.75
2023-04-07T14:02:38.842Z,77187.63
2023-04-07T14:04:11.665Z,77191.59
2023-04-07T14:05:44.828Z,77193.56
2023-04-07T14:07:17.529Z,77209.38
2023-04-07T14:08:50.641Z,77209.38
2023-04-07T14:10:23.277Z,77213.34
2023-04-07T14:11:56.239Z,77213.34
2023-04-07T14:13:29.016Z,77229.16
2023-04-07T14:15:01.766Z,77241.03
2023-04-07T14:16:35.129Z,77241.03
2023-04-07T14:18:08.412Z,77248.94
2023-04-07T14:19:41.090Z,77260.81
2023-04-07T14:21:13.745Z,77268.72
2023-04-07T14:22:46.481Z,77284.53
2023-04-07T14:24:19.757Z,77276.63
2023-04-07T14:25:52.501Z,77278.59
2023-04-07T14:27:25.314Z,77302.34
2023-04-07T14:28:58.375Z,77308.28
2023-04-07T14:30:31.570Z,77322.13
2023-04-07T14:32:04.348Z,77324.09
2023-04-07T14:33:37.400Z,77337.94
2023-04-07T14:35:10.484Z,77343.88
2023-04-07T14:36:53.781Z,77363.66
2023-04-07T14:38:26.530Z,77355.75
2023-04-07T14:40:02.814Z,77357.72
2023-04-07T14:41:36.155Z,77359.69
2023-04-07T14:43:10.716Z,77375.53
2023-04-07T14:44:43.367Z,77375.53
2023-04-07T14:46:16.016Z,77383.44
2023-04-07T14:47:48.584Z,77403.22
2023-04-07T14:49:22.047Z,77407.16
2023-04-07T14:51:08.251Z,77415.06
2023-04-07T14:52:42.090Z,77421.00
2023-04-07T14:54:14.637Z,77415.06
2023-04-07T14:55:47.859Z,77424.97
2023-04-07T14:57:20.656Z,77454.63
2023-04-07T14:58:53.457Z,77460.56
2023-04-07T15:00:27.529Z,77468.47
2023-04-07T15:02:00.538Z,77470.47
2023-04-07T15:03:35.215Z,77478.38
2023-04-07T15:05:08.242Z,77486.28
2023-04-07T15:06:42.106Z,77488.25
2023-04-07T15:08:15.122Z,77492.22
2023-04-07T15:09:48.177Z,77498.16
2023-04-07T15:11:21.906Z,77506.06
2023-04-07T15:12:54.596Z,77515.94
2023-04-07T15:14:27.512Z,77517.91
2023-04-07T15:16:10.566Z,77523.84
2023-04-07T15:17:44.904Z,77537.69
2023-04-07T15:19:18.074Z,77543.63
2023-04-07T15:20:50.850Z,77547.59
2023-04-07T15:22:23.443Z,77555.50
2023-04-07T15:23:56.151Z,77563.41
2023-04-07T15:25:29.019Z,77567.38
2023-04-07T15:27:02.069Z,77612.84
2023-04-07T15:28:34.728Z,77573.31
2023-04-07T15:30:07.797Z,77577.25
2023-04-07T15:31:40.620Z,77589.13
2023-04-07T15:33:13.801Z,77599.00
2023-04-07T15:34:47.702Z,77593.09
2023-04-07T15:36:20.568Z,77606.94
2023-04-07T15:37:53.590Z,77606.94
2023-04-07T15:39:26.585Z,77612.84
2023-04-07T15:40:59.241Z,77620.78
2023-04-07T15:42:33.798Z,77624.72
2023-04-07T15:44:06.565Z,77638.56
2023-04-07T15:45:43.423Z,77632.63
2023-04-07T15:47:16.165Z,77648.47
2023-04-07T15:48:48.826Z,77648.47
2023-04-07T15:50:21.869Z,77662.31
2023-04-07T15:51:55.197Z,77662.31
2023-04-07T15:53:27.992Z,77662.31
2023-04-07T15:55:00.715Z,77670.22
2023-04-07T15:56:33.688Z,77680.09
2023-04-07T15:58:08.362Z,77680.09
2023-04-07T15:59:41.145Z,77682.09
2023-04-07T16:01:13.902Z,77697.91
2023-04-07T16:02:46.890Z,77701.88
2023-04-07T16:04:20.073Z,77703.84
2023-04-07T16:05:52.962Z,77705.81
2023-04-07T16:07:26.178Z,77709.78
2023-04-07T16:08:58.819Z,77715.72
2023-04-07T16:10:31.733Z,77715.72
2023-04-07T16:12:04.464Z,77719.66
2023-04-07T16:13:37.127Z,77723.63
2023-04-07T16:15:11.487Z,77731.53
2023-04-07T16:16:44.952Z,77737.47
2023-04-07T16:18:17.705Z,77737.47
2023-04-07T16:19:50.464Z,77743.41
2023-04-07T16:21:23.225Z,77747.34
2023-04-07T16:22:56.330Z,77751.31
2023-04-07T16:24:29.827Z,77755.28
2023-04-07T16:26:02.446Z,77753.28
2023-04-07T16:27:35.133Z,77757.25
2023-04-07T16:29:08.013Z,77769.13
2023-04-07T16:30:40.741Z,77775.06
2023-04-07T16:32:14.059Z,77779.00
2023-04-07T16:33:47.252Z,77779.00
2023-04-07T16:35:20.468Z,77771.09
2023-04-07T16:36:53.091Z,77775.06
2023-04-07T16:38:27.605Z,77779.00
2023-04-07T16:40:00.315Z,77775.06
2023-04-07T16:41:33.329Z,77779.00
2023-04-07T16:43:06.371Z,77780.97
2023-04-07T16:44:39.065Z,77782.97
2023-04-07T16:46:11.716Z,77788.91
2023-04-07T16:47:44.867Z,77782.97
2023-04-07T16:49:17.488Z,77782.97
2023-04-07T16:50:49.988Z,77794.84
2023-04-07T16:52:22.934Z,77798.78
2023-04-07T16:53:56.085Z,77794.84
2023-04-07T16:55:28.733Z,77802.75
2023-04-07T16:57:01.437Z,77802.75
2023-04-07T16:58:33.968Z,77806.69
2023-04-07T17:00:07.277Z,77806.69
2023-04-07T17:01:42.165Z,77814.59
2023-04-07T17:03:15.719Z,77806.69
2023-04-07T17:04:48.550Z,77806.69
2023-04-07T17:06:21.623Z,77806.69
2023-04-07T17:07:56.126Z,77800.75
2023-04-07T17:09:29.745Z,77808.69
2023-04-07T17:11:06.069Z,77822.53
2023-04-07T17:12:39.073Z,77828.47
2023-04-07T17:14:11.685Z,77824.50
2023-04-07T17:15:44.425Z,77832.41
2023-04-07T17:17:17.216Z,77832.41
2023-04-07T17:18:50.468Z,77846.25
2023-04-07T17:20:23.834Z,77838.34
2023-04-07T17:21:56.664Z,77846.25
2023-04-07T17:23:32.298Z,77844.28
2023-04-07T17:25:05.675Z,77850.22
2023-04-07T17:26:38.302Z,77862.09
2023-04-07T17:28:11.031Z,77862.09
2023-04-07T17:29:43.858Z,77862.09
2023-04-07T17:31:16.780Z,77860.09
2023-04-07T17:32:50.974Z,77864.06
2023-04-07T17:34:23.670Z,77864.06
2023-04-07T17:35:56.561Z,77862.09
2023-04-07T17:37:29.411Z,77864.06
2023-04-07T17:39:03.190Z,77870.00
2023-04-07T17:40:35.752Z,77866.03
2023-04-07T17:42:11.380Z,77862.09
2023-04-07T17:43:44.272Z,77877.91
2023-04-07T17:45:17.949Z,77881.88
2023-04-07T17:46:50.911Z,77883.84
2023-04-07T17:48:23.892Z,77893.72
2023-04-07T17:49:57.151Z,77893.72
2023-04-07T17:51:29.892Z,77897.69
2023-04-07T17:53:02.729Z,77901.66
2023-04-07T17:54:35.384Z,77905.59
2023-04-07T17:56:08.284Z,77909.56
2023-04-07T17:57:42.133Z,77917.47
2023-04-07T17:59:15.414Z,77925.38
2023-04-07T18:00:48.506Z,77925.38
2023-04-07T18:02:21.879Z,77933.28
2023-04-07T18:03:55.260Z,77937.25
2023-04-07T18:05:31.266Z,77945.16
2023-04-07T18:07:03.949Z,77943.19
2023-04-07T18:08:36.984Z,77949.13
2023-04-07T18:10:10.403Z,77951.09
2023-04-07T18:11:43.495Z,77949.13
2023-04-07T18:13:16.237Z,77966.91
2023-04-07T18:14:49.146Z,77966.91
2023-04-07T18:16:22.528Z,77962.97
2023-04-07T18:17:55.676Z,77974.84
2023-04-07T18:19:30.274Z,77972.84
2023-04-07T18:21:03.606Z,77976.81
2023-04-07T18:22:37.590Z,77984.72
2023-04-07T18:24:10.205Z,77988.69
2023-04-07T18:25:42.947Z,77996.59
2023-04-07T18:27:16.400Z,77996.59
2023-04-07T18:28:49.695Z,78004.50
2023-04-07T18:30:22.716Z,78014.41
2023-04-07T18:31:55.528Z,78012.41